Terminal Aerodrome Forecast
Issued by NWS

Home | Current Version | Previous Version | Text Only | Print | Product List | Glossary On
Versions: 1 2 3 4 5 6 7 8 9 10 11 12 13 14 15
000
FTUS41 KBTV 181131
TAFPBG
TAF
KPBG 181131Z 1812/1912 14005KT P6SM SCT120 BKN200
     FM182300 15007KT P6SM VCSH OVC050
     FM190100 14009KT P6SM -RA OVC035
     FM190300 14008KT 4SM -RA BR OVC030
     FM190800 15010G17KT P6SM -RA OVC028=

USA.gov is the U.S. government's official web portal to all federal, state and local government web resources and services.